This is the latest recevied weather packets stored in our database for station/object KE5SXT-2. If no packets are shown the sender has not sent any weather packets the latest 10 day(s).
| Time | Temp. | Humidity | Pressure | Rain* | Wind** | Luminosity | Snow |
|---|---|---|---|---|---|---|---|
| 1778212820 | 17.78° C | 64% | 1015 hPa | 0 mm | - | - | - |
| 1778211620 | 17.78° C | 58% | 1014.9 hPa | 0 mm | - | - | - |
| 1778210445 | 18.33° C | 54% | 1015 hPa | 0 mm | - | - | - |
| 1778206220 | 20° C | 51% | 1014.2 hPa | 0 mm | - | - | - |
| 1778200222 | 22.78° C | 46% | 1013.6 hPa | 0 mm | - | - | - |
| 1778197222 | 23.33° C | 44% | 1013.9 hPa | 0 mm | - | - | - |
| 1778194822 | 23.33° C | 43% | 1014.3 hPa | 0 mm | - | - | - |
| 1778193022 | 23.33° C | 42% | 1014.4 hPa | 0 mm | - | - | - |
| 1778191822 | 23.89° C | 41% | 1014.4 hPa | 0 mm | - | - | - |
| 1778181621 | 21.67° C | 44% | 1017.1 hPa | 0 mm | - | - | - |
| 1778179822 | 21.11° C | 45% | 1018.1 hPa | 0 mm | - | - | - |
| 1778177421 | 20.56° C | 47% | 1018.8 hPa | 0 mm | - | - | - |
| 1778175622 | 20° C | 47% | 1019.4 hPa | 0 mm | - | - | - |
| 1778172021 | 17.78° C | 52% | 1019.8 hPa | 0 mm | - | - | - |
| 1778169621 | 17.22° C | 54% | 1020.3 hPa | 0 mm | - | - | - |
| 1778163021 | 14.44° C | 64% | 1020.7 hPa | 0 mm | - | - | - |
| 1778160621 | 13.89° C | 67% | 1020.4 hPa | 0 mm | - | - | - |
| 1778151021 | 14.44° C | 68% | 1018.3 hPa | 0 mm | - | - | - |
| 1778149820 | 14.44° C | 71% | 1017.6 hPa | 0 mm | - | - | - |
| 1778146845 | 15.56° C | 70% | 1017.2 hPa | 0 mm | - | - | - |
| 1778145020 | 16.11° C | 72% | 1016.8 hPa | 0 mm | - | - | - |
| 1778139020 | 17.78° C | 65% | 1015.6 hPa | 0 mm | - | - | - |
| 1778134220 | 19.44° C | 59% | 1015.4 hPa | 0 mm | - | - | - |
| 1778129421 | 20.56° C | 43% | 1014.6 hPa | 0 mm | - | - | - |
| 1778128245 | 21.67° C | 40% | 1014.3 hPa | 0 mm | - | - | - |
* Rain latest hour (hover to see other rain measurements)
** Current wind speed in m/s (hover to see current wind gust speed)